createdAt,value
2017-06-08T00:00:51.367Z,45.45
2017-06-08T00:01:51.396Z,45.81
2017-06-08T00:02:51.424Z,46.3
2017-06-08T00:03:51.453Z,46.2
2017-06-08T00:04:51.479Z,46.1
2017-06-08T00:05:51.498Z,45.52
2017-06-08T00:06:51.224Z,46.2
2017-06-08T00:07:51.556Z,45.42
2017-06-08T00:08:51.589Z,46.1
2017-06-08T00:09:51.618Z,45.81
2017-06-08T00:10:51.675Z,46.39
2017-06-08T00:11:51.360Z,45.33
2017-06-08T00:12:51.697Z,46.2
2017-06-08T00:13:51.736Z,45.91
2017-06-08T00:14:51.758Z,46.1
2017-06-08T00:15:51.783Z,46.1
2017-06-08T00:16:51.492Z,46.1
2017-06-08T00:17:51.844Z,46
2017-06-08T00:18:51.866Z,46.2
2017-06-08T00:19:51.895Z,46.1
2017-06-08T00:20:51.602Z,46.2
2017-06-08T00:21:52.199Z,46.3
2017-06-08T00:22:51.976Z,46
2017-06-08T00:23:52.002Z,46.1
2017-06-08T00:24:52.025Z,46.3
2017-06-08T00:25:52.058Z,46.2
2017-06-08T00:26:52.336Z,46.3
2017-06-08T00:27:51.800Z,46.1
2017-06-08T00:28:52.141Z,46.3
2017-06-08T00:29:51.850Z,46.3
2017-06-08T00:30:52.190Z,46.3
2017-06-08T00:31:52.475Z,46.2
2017-06-08T00:32:52.243Z,46.3
2017-06-08T00:33:52.281Z,46.2
2017-06-08T00:34:52.304Z,45.81
2017-06-08T00:35:52.022Z,45.91
2017-06-08T00:36:52.303Z,46
2017-06-08T00:37:52.072Z,46
2017-06-08T00:38:52.413Z,45.91
2017-06-08T00:39:52.127Z,46
2017-06-08T00:40:52.496Z,45.81
2017-06-08T00:41:52.745Z,45.91
2017-06-08T00:42:52.208Z,46
2017-06-08T00:43:52.553Z,46.1
2017-06-08T00:44:52.580Z,45.91
2017-06-08T00:45:52.298Z,46.1
2017-06-08T00:46:52.574Z,46.1
2017-06-08T00:47:52.667Z,45.72
2017-06-08T00:48:52.688Z,46
2017-06-08T00:49:52.864Z,46
2017-06-08T00:50:52.743Z,46
2017-06-08T00:51:52.975Z,46.1
2017-06-08T00:52:52.488Z,46.1
2017-06-08T00:53:52.825Z,46.2
2017-06-08T00:54:52.857Z,46
2017-06-08T00:55:52.881Z,46
2017-06-08T00:56:53.163Z,46
2017-06-08T00:57:52.944Z,46
2017-06-08T00:58:52.648Z,46
2017-06-08T00:59:52.995Z,46.1
2017-06-08T01:00:52.731Z,46
2017-06-08T01:01:52.981Z,45.81
2017-06-08T01:02:53.075Z,45.81
2017-06-08T01:03:53.104Z,46
2017-06-08T01:04:53.129Z,46.3
2017-06-08T01:05:53.179Z,45.81
2017-06-08T01:06:53.434Z,45.91
2017-06-08T01:07:53.208Z,45.91
2017-06-08T01:08:53.240Z,46.1
2017-06-08T01:09:52.957Z,45.81
2017-06-08T01:10:53.291Z,46.1
2017-06-08T01:11:53.322Z,46.1
2017-06-08T01:12:53.352Z,46.1
2017-06-08T01:13:53.376Z,46.1
2017-06-08T01:14:53.404Z,46.1
2017-06-08T01:15:53.430Z,46.3
2017-06-08T01:16:53.134Z,46
2017-06-08T01:17:53.491Z,46
2017-06-08T01:18:53.515Z,46.3
2017-06-08T01:19:53.541Z,45.81
2017-06-08T01:20:53.573Z,46
2017-06-08T01:21:53.599Z,46
2017-06-08T01:22:53.310Z,46.1
2017-06-08T01:23:53.652Z,45.91
2017-06-08T01:24:53.676Z,46
2017-06-08T01:25:53.707Z,46.27
2017-06-08T01:26:53.734Z,45.91
2017-06-08T01:27:53.763Z,46
2017-06-08T01:28:53.787Z,46.1
2017-06-08T01:29:53.820Z,46.1
2017-06-08T01:30:53.859Z,46.2
2017-06-08T01:31:53.870Z,46
2017-06-08T01:32:53.898Z,46
2017-06-08T01:33:53.920Z,46.1
2017-06-08T01:34:53.644Z,46
2017-06-08T01:35:53.976Z,46.1
2017-06-08T01:36:54.002Z,45.91
2017-06-08T01:37:54.035Z,46.3
2017-06-08T01:38:54.064Z,46
2017-06-08T01:39:54.093Z,45.89
2017-06-08T01:40:54.119Z,46.3
2017-06-08T01:41:54.150Z,46.2
2017-06-08T01:42:54.171Z,45.98
2017-06-08T01:43:54.200Z,45.98
2017-06-08T01:44:54.223Z,46.17
2017-06-08T01:45:54.253Z,46.08
2017-06-08T01:46:54.277Z,45.89
2017-06-08T01:47:54.310Z,45.98
2017-06-08T01:48:54.332Z,46.17
2017-06-08T01:49:54.052Z,46.17
2017-06-08T01:50:54.396Z,46.17
2017-06-08T01:51:54.409Z,46.08
2017-06-08T01:52:54.447Z,46.17
2017-06-08T01:53:54.472Z,46.17
2017-06-08T01:54:54.492Z,46.27
2017-06-08T01:55:54.529Z,45.98
2017-06-08T01:56:54.550Z,46.17
2017-06-08T01:57:54.590Z,46.27
2017-06-08T01:58:54.612Z,46.27
2017-06-08T01:59:54.641Z,45.89
2017-06-08T02:00:54.662Z,46.17
2017-06-08T02:01:54.382Z,45.89
2017-06-08T02:02:54.714Z,46.27
2017-06-08T02:03:54.752Z,46.27
2017-06-08T02:04:54.776Z,46.27
2017-06-08T02:05:54.488Z,45.89
2017-06-08T02:06:54.825Z,46.17
2017-06-08T02:07:54.547Z,46.37
2017-06-08T02:08:54.883Z,46.17
2017-06-08T02:09:54.912Z,46.17
2017-06-08T02:10:54.623Z,46.17
2017-06-08T02:11:54.962Z,46.27
2017-06-08T02:12:55.238Z,46.27
2017-06-08T02:13:55.019Z,46.17
2017-06-08T02:14:55.051Z,45.98
2017-06-08T02:15:55.076Z,46.27
2017-06-08T02:16:55.129Z,46.17
2017-06-08T02:17:55.066Z,46.27
2017-06-08T02:18:55.158Z,45.98
2017-06-08T02:19:54.867Z,45.98
2017-06-08T02:20:55.212Z,45.98
2017-06-08T02:21:55.238Z,46.27
2017-06-08T02:22:55.466Z,46.17
2017-06-08T02:23:54.983Z,45.79
2017-06-08T02:24:55.319Z,45.98
2017-06-08T02:25:55.349Z,46.27
2017-06-08T02:26:55.066Z,45.79
2017-06-08T02:27:55.338Z,45.98
2017-06-08T02:28:55.431Z,45.89
2017-06-08T02:29:55.148Z,46.08
2017-06-08T02:30:55.485Z,46.27
2017-06-08T02:31:55.204Z,46.17
2017-06-08T02:32:55.797Z,45.98
2017-06-08T02:33:55.550Z,45.98
2017-06-08T02:34:55.596Z,46.08
2017-06-08T02:35:55.616Z,45.98
2017-06-08T02:36:55.650Z,46.37
2017-06-08T02:37:55.927Z,45.98
2017-06-08T02:38:55.391Z,45.98
2017-06-08T02:39:55.731Z,45.98
2017-06-08T02:40:55.760Z,46.17
2017-06-08T02:41:55.792Z,46.37
2017-06-08T02:42:56.015Z,46.37
2017-06-08T02:43:55.518Z,46.37
2017-06-08T02:44:55.862Z,46.27
2017-06-08T02:45:55.896Z,45.89
2017-06-08T02:46:55.606Z,46.37
2017-06-08T02:47:56.201Z,46.08
2017-06-08T02:48:55.978Z,45.98
2017-06-08T02:49:56.003Z,46.08
2017-06-08T02:50:56.033Z,45.98
2017-06-08T02:51:56.061Z,45.98
2017-06-08T02:52:56.341Z,46.37
2017-06-08T02:53:56.114Z,45.98
2017-06-08T02:54:55.822Z,46.17
2017-06-08T02:55:56.169Z,45.98
2017-06-08T02:56:56.197Z,46.08
2017-06-08T02:57:56.469Z,46.08
2017-06-08T02:58:55.938Z,46.08
2017-06-08T02:59:56.279Z,46.08
2017-06-08T03:00:56.304Z,46.37
2017-06-08T03:01:56.021Z,46.08
2017-06-08T03:02:56.353Z,46.47
2017-06-08T03:03:56.386Z,46.08
2017-06-08T03:04:56.415Z,46.37
2017-06-08T03:05:56.440Z,46.17
2017-06-08T03:06:56.468Z,46.27
2017-06-08T03:07:56.485Z,46.56
2017-06-08T03:08:56.526Z,46.27
2017-06-08T03:09:56.551Z,46.27
2017-06-08T03:10:56.577Z,46.37
2017-06-08T03:11:56.608Z,46.37
2017-06-08T03:12:56.629Z,46.27
2017-06-08T03:13:56.654Z,46.27
2017-06-08T03:14:56.375Z,46.27
2017-06-08T03:15:56.710Z,46.37
2017-06-08T03:16:56.739Z,46.37
2017-06-08T03:17:56.769Z,46.27
2017-06-08T03:18:56.795Z,46.27
2017-06-08T03:19:56.822Z,46.27
2017-06-08T03:20:56.847Z,46.37
2017-06-08T03:21:56.560Z,46.27
2017-06-08T03:22:56.905Z,46.17
2017-06-08T03:23:56.930Z,46.27
2017-06-08T03:24:56.959Z,46.27
2017-06-08T03:25:56.983Z,46.37
2017-06-08T03:26:56.700Z,46.27
2017-06-08T03:27:56.728Z,46.47
2017-06-08T03:28:57.065Z,46.37
2017-06-08T03:29:57.089Z,46.37
2017-06-08T03:30:56.803Z,46.27
2017-06-08T03:31:57.149Z,46.27
2017-06-08T03:32:57.176Z,46.27
2017-06-08T03:33:56.876Z,46.27
2017-06-08T03:34:57.233Z,46.37
2017-06-08T03:35:57.254Z,46.37
2017-06-08T03:36:57.288Z,46.47
2017-06-08T03:37:57.310Z,46.47
2017-06-08T03:38:57.329Z,46.47
2017-06-08T03:39:57.367Z,46.37
2017-06-08T03:40:57.396Z,46.47
2017-06-08T03:41:57.419Z,46.47
2017-06-08T03:42:57.442Z,46.37
2017-06-08T03:43:57.513Z,46.47
2017-06-08T03:44:57.502Z,46.47
2017-06-08T03:45:57.530Z,46.37
2017-06-08T03:46:57.240Z,46.37
2017-06-08T03:47:57.584Z,46.37
2017-06-08T03:48:57.298Z,46.47
2017-06-08T03:49:57.327Z,46.27
2017-06-08T03:50:57.357Z,46.56
2017-06-08T03:51:57.696Z,46.47
2017-06-08T03:52:57.716Z,46.27
2017-06-08T03:53:57.745Z,46.56
2017-06-08T03:54:57.774Z,46.27
2017-06-08T03:55:57.803Z,46.85
2017-06-08T03:56:57.520Z,46.27
2017-06-08T03:57:57.856Z,46.56
2017-06-08T03:58:57.878Z,46.37
2017-06-08T03:59:57.593Z,46.47
2017-06-08T04:00:57.933Z,46.47
2017-06-08T04:01:57.967Z,46.37
2017-06-08T04:02:57.989Z,46.47
2017-06-08T04:03:57.956Z,46.37
2017-06-08T04:04:58.045Z,46.37
2017-06-08T04:05:58.075Z,46.08
2017-06-08T04:06:58.111Z,46.27
2017-06-08T04:07:58.125Z,46.27
2017-06-08T04:08:58.413Z,46.27
2017-06-08T04:09:58.186Z,46.27
2017-06-08T04:10:58.211Z,46.27
2017-06-08T04:11:58.240Z,46.37
2017-06-08T04:12:58.264Z,46.37
2017-06-08T04:13:58.491Z,46.56
2017-06-08T04:14:58.322Z,46.37
2017-06-08T04:15:58.346Z,46.37
2017-06-08T04:16:58.371Z,46.47
2017-06-08T04:17:58.404Z,46.08
2017-06-08T04:18:58.685Z,46.47
2017-06-08T04:19:58.458Z,46.56
2017-06-08T04:20:58.482Z,46.08
2017-06-08T04:21:58.511Z,46.66
2017-06-08T04:22:58.536Z,46.08
2017-06-08T04:23:58.816Z,45.98
2017-06-08T04:24:58.589Z,46.08
2017-06-08T04:25:58.617Z,46.56
2017-06-08T04:26:58.647Z,45.98
2017-06-08T04:27:58.675Z,46.08
2017-06-08T04:28:58.952Z,46.47
2017-06-08T04:29:58.723Z,46.08
2017-06-08T04:30:58.754Z,45.98
2017-06-08T04:31:58.784Z,45.98
2017-06-08T04:32:58.807Z,46.27
2017-06-08T04:33:58.771Z,45.98
2017-06-08T04:34:58.862Z,46.27
2017-06-08T04:35:58.931Z,46.17
2017-06-08T04:36:58.607Z,46.17
2017-06-08T04:37:58.950Z,45.98
2017-06-08T04:38:59.228Z,46.27
2017-06-08T04:39:58.997Z,45.89
2017-06-08T04:40:58.714Z,46.08
2017-06-08T04:41:59.062Z,46.08
2017-06-08T04:42:59.084Z,45.98
2017-06-08T04:43:59.363Z,45.98
2017-06-08T04:44:58.819Z,46.08
2017-06-08T04:45:59.165Z,46.08
2017-06-08T04:46:59.184Z,45.79
2017-06-08T04:47:59.222Z,45.79
2017-06-08T04:48:59.500Z,46.08
2017-06-08T04:49:59.272Z,46.08
2017-06-08T04:50:58.986Z,46.08
2017-06-08T04:51:59.330Z,46.08
2017-06-08T04:52:59.370Z,46.08
2017-06-08T04:53:59.384Z,46.08
2017-06-08T04:54:59.416Z,45.89
2017-06-08T04:55:59.437Z,45.98
2017-06-08T04:56:59.466Z,45.98
2017-06-08T04:57:59.490Z,45.89
2017-06-08T04:58:59.208Z,45.98
2017-06-08T04:59:59.548Z,45.89
2017-06-08T05:00:59.256Z,45.89
2017-06-08T05:01:59.606Z,45.98
2017-06-08T05:02:59.314Z,45.79
2017-06-08T05:03:59.655Z,45.79
2017-06-08T05:04:59.688Z,46.17
2017-06-08T05:05:59.709Z,46.17
2017-06-08T05:06:59.738Z,46.27
2017-06-08T05:07:59.797Z,46.08
2017-06-08T05:08:59.792Z,46.27
2017-06-08T05:09:59.499Z,46.27
2017-06-08T05:10:59.849Z,46.17
2017-06-08T05:11:59.874Z,46.17
2017-06-08T05:12:59.903Z,46.27
2017-06-08T05:13:59.931Z,46.27
2017-06-08T05:14:59.952Z,46.27
2017-06-08T05:15:59.984Z,46.08
2017-06-08T05:17:00.009Z,46.17
2017-06-08T05:18:00.034Z,46.27
2017-06-08T05:19:00.067Z,46.37
2017-06-08T05:20:00.087Z,46.37
2017-06-08T05:21:00.117Z,46.37
2017-06-08T05:22:00.150Z,46.37
2017-06-08T05:23:00.175Z,45.98
2017-06-08T05:24:00.204Z,46.08
2017-06-08T05:25:00.232Z,46.08
2017-06-08T05:26:00.251Z,46.27
2017-06-08T05:27:00.289Z,46.27
2017-06-08T05:27:59.998Z,46.17
2017-06-08T05:29:00.335Z,46.3
2017-06-08T05:30:00.054Z,46.08
2017-06-08T05:31:00.394Z,46.17
2017-06-08T05:32:00.419Z,46.08
2017-06-08T05:33:00.454Z,45.98
2017-06-08T05:34:00.166Z,46
2017-06-08T05:35:00.502Z,46.17
2017-06-08T05:36:00.523Z,45.98
2017-06-08T05:37:00.565Z,45.98
2017-06-08T05:38:00.274Z,46.08
2017-06-08T05:39:00.298Z,45.89
2017-06-08T05:40:00.330Z,46.2
2017-06-08T05:41:00.664Z,45.98
2017-06-08T05:42:00.693Z,45.98
2017-06-08T05:43:00.725Z,46.17
2017-06-08T05:44:00.438Z,46.08
2017-06-08T05:45:00.775Z,46.1
2017-06-08T05:46:00.800Z,46.17
2017-06-08T05:47:00.834Z,46.1
2017-06-08T05:48:00.861Z,46.2
2017-06-08T05:49:00.890Z,46.08
2017-06-08T05:50:00.914Z,45.81
2017-06-08T05:51:00.977Z,45.81
2017-06-08T05:52:00.968Z,46.2
2017-06-08T05:53:00.998Z,45.81
2017-06-08T05:54:01.026Z,45.42
2017-06-08T05:55:01.051Z,45.62
2017-06-08T05:56:00.764Z,45.81
2017-06-08T05:57:01.109Z,45.81
2017-06-08T05:58:00.821Z,45.91
2017-06-08T05:59:01.164Z,45.91
2017-06-08T06:00:01.448Z,45.91
2017-06-08T06:01:00.903Z,45.81
2017-06-08T06:02:01.245Z,45.72
2017-06-08T06:03:01.274Z,45.62
2017-06-08T06:04:00.986Z,46
2017-06-08T06:05:01.526Z,45.62
2017-06-08T06:06:01.040Z,45.62
2017-06-08T06:07:01.381Z,45.72
2017-06-08T06:08:01.094Z,45.62
2017-06-08T06:09:01.438Z,45.62
2017-06-08T06:10:01.715Z,45.62
2017-06-08T06:11:01.491Z,45.62
2017-06-08T06:12:01.208Z,45.72
2017-06-08T06:13:01.545Z,46
2017-06-08T06:14:01.582Z,45.91
2017-06-08T06:15:01.850Z,45.91
2017-06-08T06:16:01.627Z,45.81
2017-06-08T06:17:01.656Z,45.81
2017-06-08T06:18:01.690Z,45.91
2017-06-08T06:19:01.706Z,46
2017-06-08T06:20:01.939Z,46.1
2017-06-08T06:21:01.768Z,46
2017-06-08T06:22:01.796Z,46.1
2017-06-08T06:23:01.817Z,46.1
2017-06-08T06:24:01.853Z,45.91
2017-06-08T06:25:02.130Z,45.62
2017-06-08T06:26:01.593Z,46.1
2017-06-08T06:27:01.621Z,46.1
2017-06-08T06:28:01.649Z,45.62
2017-06-08T06:29:01.985Z,45.52
2017-06-08T06:30:02.266Z,45.62
2017-06-08T06:31:02.044Z,45.42
2017-06-08T06:32:02.068Z,45.42
2017-06-08T06:33:02.094Z,45.42
2017-06-08T06:34:02.158Z,45.42
2017-06-08T06:35:02.401Z,45.52
2017-06-08T06:36:01.867Z,45.72
2017-06-08T06:37:02.203Z,45.52
2017-06-08T06:38:02.229Z,45.62
2017-06-08T06:39:02.270Z,45.23
2017-06-08T06:40:02.541Z,45.52
2017-06-08T06:41:02.316Z,46.1
2017-06-08T06:42:02.340Z,45.14
2017-06-08T06:43:02.373Z,45.62
2017-06-08T06:44:02.090Z,45.52
2017-06-08T06:45:02.425Z,45.33
2017-06-08T06:46:02.455Z,45.23
2017-06-08T06:47:02.164Z,45.52
2017-06-08T06:48:02.512Z,45.14
2017-06-08T06:49:02.536Z,45.72
2017-06-08T06:50:02.257Z,45.33
2017-06-08T06:51:02.594Z,45.42
2017-06-08T06:52:02.631Z,45.33
2017-06-08T06:53:02.648Z,45.33
2017-06-08T06:54:02.366Z,45.23
2017-06-08T06:55:02.701Z,45.42
2017-06-08T06:56:02.415Z,45.33
2017-06-08T06:57:02.759Z,45.52
2017-06-08T06:58:02.785Z,45.72
2017-06-08T06:59:02.813Z,45.33
2017-06-08T07:00:02.843Z,45.81
2017-06-08T07:01:02.867Z,45.52
2017-06-08T07:02:02.901Z,44.84
2017-06-08T07:03:02.920Z,45.33
2017-06-08T07:04:02.952Z,45.42
2017-06-08T07:05:02.670Z,45.23
2017-06-08T07:06:03.004Z,46.1
2017-06-08T07:07:03.083Z,45.33
2017-06-08T07:08:03.061Z,44.65
2017-06-08T07:09:03.093Z,44.56
2017-06-08T07:10:03.117Z,44.56
2017-06-08T07:11:02.828Z,44.26
2017-06-08T07:12:03.178Z,44.56
2017-06-08T07:13:03.201Z,44.65
2017-06-08T07:14:03.244Z,44.65
2017-06-08T07:15:02.944Z,44.46
2017-06-08T07:16:03.317Z,44.26
2017-06-08T07:17:03.302Z,43.88
2017-06-08T07:18:03.339Z,43.78
2017-06-08T07:19:03.365Z,43.3
2017-06-08T07:20:03.081Z,43.68
2017-06-08T07:21:03.418Z,44.07
2017-06-08T07:22:03.449Z,43.88
2017-06-08T07:23:03.479Z,43.98
2017-06-08T07:24:03.508Z,43.78
2017-06-08T07:25:03.529Z,44.26
2017-06-08T07:26:03.559Z,44.36
2017-06-08T07:27:03.587Z,44.26
2017-06-08T07:28:03.611Z,44.26
2017-06-08T07:29:03.642Z,43.98
2017-06-08T07:30:03.668Z,44.46
2017-06-08T07:31:03.694Z,43.68
2017-06-08T07:32:03.728Z,43.88
2017-06-08T07:33:03.756Z,43.78
2017-06-08T07:34:03.781Z,43.88
2017-06-08T07:35:03.811Z,43.49
2017-06-08T07:36:03.842Z,43.88
2017-06-08T07:37:03.862Z,43.78
2017-06-08T07:38:03.896Z,43.98
2017-06-08T07:39:03.920Z,43.68
2017-06-08T07:40:03.945Z,44.26
2017-06-08T07:41:03.975Z,43.98
2017-06-08T07:42:04.002Z,43.68
2017-06-08T07:43:03.720Z,43.49
2017-06-08T07:44:03.745Z,42.72
2017-06-08T07:45:04.083Z,43.49
2017-06-08T07:46:03.801Z,43.68
2017-06-08T07:47:04.135Z,43.4
2017-06-08T07:48:04.167Z,43.3
2017-06-08T07:49:04.196Z,43.2
2017-06-08T07:50:03.917Z,43.2
2017-06-08T07:51:04.249Z,42.91
2017-06-08T07:52:04.278Z,43.68
2017-06-08T07:53:04.309Z,43.3
2017-06-08T07:54:04.023Z,43.59
2017-06-08T07:55:04.361Z,42.72
2017-06-08T07:56:04.391Z,42.91
2017-06-08T07:57:04.419Z,43.1
2017-06-08T07:58:04.444Z,43.4
2017-06-08T07:59:04.467Z,43.3
2017-06-08T08:00:04.511Z,44.07
2017-06-08T08:01:04.214Z,43.88
2017-06-08T08:02:04.554Z,43.4
2017-06-08T08:03:04.583Z,43.3
2017-06-08T08:04:04.300Z,42.72
2017-06-08T08:05:04.641Z,43.4
2017-06-08T08:06:04.917Z,43.4
2017-06-08T08:07:04.693Z,42.82
2017-06-08T08:08:04.718Z,42.72
2017-06-08T08:09:04.753Z,42.91
2017-06-08T08:10:04.464Z,42.62
2017-06-08T08:11:05.055Z,42.62
2017-06-08T08:12:04.826Z,42.33
2017-06-08T08:13:04.547Z,42.43
2017-06-08T08:14:04.885Z,42.62
2017-06-08T08:15:04.609Z,42.82
2017-06-08T08:16:05.193Z,42.72
2017-06-08T08:17:04.970Z,42.43
2017-06-08T08:18:04.997Z,42.65
2017-06-08T08:19:05.042Z,43.3
2017-06-08T08:20:05.057Z,42.72
2017-06-08T08:21:05.333Z,43.32
2017-06-08T08:22:05.100Z,43.2
2017-06-08T08:23:05.134Z,43.03
2017-06-08T08:24:05.171Z,42.93
2017-06-08T08:25:05.192Z,42.45
2017-06-08T08:26:05.164Z,42.25
2017-06-08T08:27:05.246Z,41.48
2017-06-08T08:28:04.961Z,42.45
2017-06-08T08:29:04.987Z,42.25
2017-06-08T08:30:05.361Z,42.25
2017-06-08T08:31:05.292Z,41.67
2017-06-08T08:32:05.390Z,41.67
2017-06-08T08:33:05.415Z,41.77
2017-06-08T08:34:05.442Z,42.07
2017-06-08T08:35:05.156Z,42.16
2017-06-08T08:36:05.700Z,41.97
2017-06-08T08:37:05.213Z,41.67
2017-06-08T08:38:05.238Z,42.07
2017-06-08T08:39:05.582Z,42.35
2017-06-08T08:40:05.299Z,41.97
2017-06-08T08:41:05.896Z,41.48
2017-06-08T08:42:05.666Z,41.48
2017-06-08T08:43:05.386Z,41.48
2017-06-08T08:44:05.722Z,41.67
2017-06-08T08:45:05.431Z,41.77
2017-06-08T08:46:06.028Z,41.67
2017-06-08T08:47:05.495Z,41.48
2017-06-08T08:48:05.522Z,40.81
2017-06-08T08:49:05.863Z,41
2017-06-08T08:50:05.576Z,41.09
2017-06-08T08:51:06.163Z,41.09
2017-06-08T08:52:05.944Z,40.13
2017-06-08T08:53:05.972Z,40.61
2017-06-08T08:54:05.998Z,40.81
2017-06-08T08:55:06.028Z,40.71
2017-06-08T08:56:06.307Z,41.09
2017-06-08T08:57:05.761Z,41.48
2017-06-08T08:58:05.803Z,41.67
2017-06-08T08:59:05.827Z,40.81
2017-06-08T09:00:06.159Z,40.81
2017-06-08T09:01:06.443Z,41
2017-06-08T09:02:06.224Z,41.09
2017-06-08T09:03:06.253Z,41.19
2017-06-08T09:04:06.278Z,41.09
2017-06-08T09:05:06.302Z,41.09
2017-06-08T09:06:06.275Z,41.5
2017-06-08T09:07:06.365Z,41.67
2017-06-08T09:08:06.083Z,40.73
2017-06-08T09:09:06.420Z,40.92
2017-06-08T09:10:06.445Z,40.92
2017-06-08T09:11:06.364Z,40.73
2017-06-08T09:12:06.187Z,40.73
2017-06-08T09:13:06.534Z,40.73
2017-06-08T09:14:06.250Z,40.73
2017-06-08T09:15:06.587Z,40.73
2017-06-08T09:16:06.868Z,40.92
2017-06-08T09:17:06.333Z,40.73
2017-06-08T09:18:06.358Z,40.83
2017-06-08T09:19:06.698Z,40.92
2017-06-08T09:20:06.420Z,40.73
2017-06-08T09:21:07.000Z,40.53
2017-06-08T09:22:06.784Z,40.25
2017-06-08T09:23:06.814Z,40.15
2017-06-08T09:24:06.842Z,40.25
2017-06-08T09:25:06.871Z,40.25
2017-06-08T09:26:07.143Z,40.15
2017-06-08T09:27:06.928Z,40.15
2017-06-08T09:28:06.955Z,40.34
2017-06-08T09:29:06.978Z,40.25
2017-06-08T09:30:07.014Z,40.53
2017-06-08T09:31:07.239Z,40.15
2017-06-08T09:32:06.753Z,39.95
2017-06-08T09:33:06.781Z,39.95
2017-06-08T09:34:07.122Z,40.15
2017-06-08T09:35:07.143Z,40.05
2017-06-08T09:36:07.123Z,40.15
2017-06-08T09:37:07.200Z,39.86
2017-06-08T09:38:07.233Z,40.25
2017-06-08T09:39:06.946Z,40.44
2017-06-08T09:40:07.294Z,40.25
2017-06-08T09:41:07.571Z,40.15
2017-06-08T09:42:07.034Z,40.32
2017-06-08T09:43:07.064Z,40.13
2017-06-08T09:44:07.402Z,40.73
2017-06-08T09:45:07.118Z,40.63
2017-06-08T09:46:07.147Z,40.25
2017-06-08T09:47:07.171Z,40.63
2017-06-08T09:48:07.204Z,40.73
2017-06-08T09:49:07.540Z,41.11
2017-06-08T09:50:07.570Z,41.21
2017-06-08T09:51:07.599Z,40.73
2017-06-08T09:52:07.636Z,40.25
2017-06-08T09:53:07.692Z,40.71
2017-06-08T09:54:07.683Z,40.25
2017-06-08T09:55:07.397Z,40.05
2017-06-08T09:56:07.739Z,40.92
2017-06-08T09:57:07.455Z,40.73
2017-06-08T09:58:07.792Z,41.02
2017-06-08T09:59:07.826Z,40.44
2017-06-08T10:00:07.846Z,40.83
2017-06-08T10:01:07.871Z,40.63
2017-06-08T10:02:07.906Z,41.02
2017-06-08T10:03:07.624Z,41.11
2017-06-08T10:04:07.652Z,41.31
2017-06-08T10:05:07.986Z,40.73
2017-06-08T10:06:08.017Z,41.31
2017-06-08T10:07:08.047Z,40.63
2017-06-08T10:08:07.764Z,41.11
2017-06-08T10:09:08.105Z,40.92
2017-06-08T10:10:08.133Z,40.53
2017-06-08T10:11:08.162Z,40.25
2017-06-08T10:12:07.875Z,40.25
2017-06-08T10:13:08.216Z,40.15
2017-06-08T10:14:08.242Z,40.25
2017-06-08T10:15:08.272Z,40.53
2017-06-08T10:16:07.986Z,40.44
2017-06-08T10:17:08.332Z,40.05
2017-06-08T10:18:08.360Z,39.95
2017-06-08T10:19:08.077Z,39.95
2017-06-08T10:20:08.413Z,40.15
2017-06-08T10:21:08.130Z,39.86
2017-06-08T10:22:08.470Z,40.05
2017-06-08T10:23:08.500Z,40.25
2017-06-08T10:24:08.528Z,39.67
2017-06-08T10:25:08.554Z,39.09
2017-06-08T10:26:08.586Z,39.28
2017-06-08T10:27:08.610Z,38.99
2017-06-08T10:28:08.328Z,39.09
2017-06-08T10:29:08.667Z,38.89
2017-06-08T10:30:08.697Z,38.7
2017-06-08T10:31:08.743Z,38.7
2017-06-08T10:32:08.750Z,39.28
2017-06-08T10:33:08.508Z,38.79
2017-06-08T10:34:08.812Z,38.71
2017-06-08T10:35:08.525Z,38.62
2017-06-08T10:36:08.862Z,38.81
2017-06-08T10:37:08.891Z,38.62
2017-06-08T10:38:08.920Z,38.91
2017-06-08T10:39:08.945Z,38.91
2017-06-08T10:40:08.973Z,39.2
2017-06-08T10:41:08.698Z,39.29
2017-06-08T10:42:08.722Z,39.59
2017-06-08T10:43:09.063Z,39.2
2017-06-08T10:44:09.090Z,39.59
2017-06-08T10:45:09.123Z,39.59
2017-06-08T10:46:09.144Z,39.59
2017-06-08T10:47:09.211Z,39.49
2017-06-08T10:48:09.206Z,39.39
2017-06-08T10:49:09.237Z,39.59
2017-06-08T10:50:09.266Z,39.49
2017-06-08T10:51:09.293Z,39.59
2017-06-08T10:52:09.323Z,39.49
2017-06-08T10:53:09.037Z,39.69
2017-06-08T10:54:09.386Z,39.69
2017-06-08T10:55:09.408Z,39.59
2017-06-08T10:56:09.122Z,39.2
2017-06-08T10:57:09.714Z,39.69
2017-06-08T10:58:09.491Z,38.91
2017-06-08T10:59:09.520Z,38.91
2017-06-08T11:00:09.551Z,39.22
2017-06-08T11:01:09.578Z,38.93
2017-06-08T11:02:09.864Z,39.11
2017-06-08T11:03:09.633Z,38.93
2017-06-08T11:04:09.663Z,39.03
2017-06-08T11:05:09.692Z,38.73
2017-06-08T11:06:09.410Z,38.54
2017-06-08T11:07:10.002Z,38.93
2017-06-08T11:08:09.778Z,39.61
2017-06-08T11:09:09.497Z,39.12
2017-06-08T11:10:09.832Z,39.12
2017-06-08T11:11:09.570Z,39.03
2017-06-08T11:12:10.088Z,39.03
2017-06-08T11:13:09.919Z,39.03
2017-06-08T11:14:09.947Z,38.54
2017-06-08T11:15:09.981Z,38.06
2017-06-08T11:16:09.696Z,38.54
2017-06-08T11:17:10.237Z,38.25
2017-06-08T11:18:10.066Z,38.06
2017-06-08T11:19:10.091Z,38.25
2017-06-08T11:20:10.120Z,38.64
2017-06-08T11:21:10.150Z,37.87
2017-06-08T11:22:10.430Z,38.15
2017-06-08T11:23:10.210Z,38.06
2017-06-08T11:24:10.239Z,38.15
2017-06-08T11:25:10.268Z,38.35
2017-06-08T11:26:10.295Z,38.37
2017-06-08T11:27:10.578Z,38.17
2017-06-08T11:28:10.350Z,38.17
2017-06-08T11:29:10.075Z,38.07
2017-06-08T11:30:10.413Z,37.87
2017-06-08T11:31:10.441Z,37.79
2017-06-08T11:32:10.470Z,38.17
2017-06-08T11:33:10.505Z,37.88
2017-06-08T11:34:10.531Z,38.37
2017-06-08T11:35:10.554Z,37.98
2017-06-08T11:36:10.597Z,37.49
2017-06-08T11:37:10.618Z,37.59
2017-06-08T11:38:10.646Z,37.69
2017-06-08T11:39:10.666Z,37.51
2017-06-08T11:40:10.701Z,37.23
2017-06-08T11:41:10.741Z,37.23
2017-06-08T11:42:10.762Z,36.83
2017-06-08T11:43:10.478Z,36.35
2017-06-08T11:44:10.532Z,36.36
2017-06-08T11:45:10.852Z,36.27
2017-06-08T11:46:10.573Z,36.18
2017-06-08T11:47:10.913Z,36
2017-06-08T11:48:10.942Z,35.9
2017-06-08T11:49:10.971Z,35.53
2017-06-08T11:50:10.693Z,35.53
2017-06-08T11:51:11.037Z,35.43
2017-06-08T11:52:11.065Z,35.25
2017-06-08T11:53:11.098Z,35.25
2017-06-08T11:54:11.123Z,34.58
2017-06-08T11:55:10.843Z,35.06
2017-06-08T11:56:10.877Z,34.69
2017-06-08T11:57:11.221Z,34.69
2017-06-08T11:58:11.254Z,34.3
2017-06-08T11:59:11.281Z,34.59
2017-06-08T12:00:11.311Z,34.22
2017-06-08T12:01:11.344Z,33.64
2017-06-08T12:02:11.385Z,33.15
2017-06-08T12:03:11.407Z,33.25
2017-06-08T12:04:11.124Z,33.26
2017-06-08T12:05:11.472Z,33.36
2017-06-08T12:06:11.544Z,33.17
2017-06-08T12:07:11.220Z,32.78
2017-06-08T12:08:11.609Z,32.6
2017-06-08T12:09:11.283Z,32.79
2017-06-08T12:10:11.635Z,32.6
2017-06-08T12:11:11.656Z,32.4
2017-06-08T12:12:11.694Z,32.32
2017-06-08T12:13:11.730Z,32.32
2017-06-08T12:14:11.761Z,31.84
2017-06-08T12:15:11.786Z,31.27
2017-06-08T12:16:11.824Z,31.27
2017-06-08T12:17:11.545Z,30.98
2017-06-08T12:18:11.578Z,31.07
2017-06-08T12:19:11.918Z,30.9
2017-06-08T12:20:11.959Z,30.8
2017-06-08T12:21:11.987Z,30.6
2017-06-08T12:22:12.016Z,30.9
2017-06-08T12:23:11.742Z,30.32
2017-06-08T12:24:12.082Z,30.13
2017-06-08T12:25:12.123Z,29.83
2017-06-08T12:26:11.840Z,29.93
2017-06-08T12:27:12.181Z,29.66
2017-06-08T12:28:12.422Z,29.46
2017-06-08T12:29:12.270Z,28.78
2017-06-08T12:30:12.283Z,28.78
2017-06-08T12:31:12.015Z,28.58
2017-06-08T12:32:12.349Z,28.39
2017-06-08T12:33:12.632Z,28.49
2017-06-08T12:34:12.427Z,28.4
2017-06-08T12:35:12.454Z,28.69
2017-06-08T12:36:12.488Z,28.59
2017-06-08T12:37:12.527Z,28.5
2017-06-08T12:38:12.445Z,28.5
2017-06-08T12:39:12.590Z,28.32
2017-06-08T12:40:12.623Z,28.03
2017-06-08T12:41:12.660Z,27.83
2017-06-08T12:42:12.385Z,27.73
2017-06-08T12:43:12.925Z,27.64
2017-06-08T12:44:12.758Z,27.34
2017-06-08T12:45:12.790Z,27.25
2017-06-08T12:46:12.827Z,27.16
2017-06-08T12:47:12.861Z,27.55
2017-06-08T12:48:13.143Z,27.54
2017-06-08T12:49:12.927Z,27.16
2017-06-08T12:50:12.959Z,26.87
2017-06-08T12:51:12.987Z,27.16
2017-06-08T12:52:13.031Z,26.77
2017-06-08T12:53:13.264Z,26.57
2017-06-08T12:54:13.105Z,26.39
2017-06-08T12:55:13.130Z,26.59
2017-06-08T12:56:13.172Z,26
2017-06-08T12:57:13.196Z,26.29
2017-06-08T12:58:13.429Z,26.29
2017-06-08T12:59:13.269Z,26.1
2017-06-08T13:00:13.322Z,25.9